Time;durP1;ratioP1;P1;durP2;ratioP2;P2;SDS_P1;SDS_P2;PMS_P1;PMS_P2;Temp;Humidity;BMP_temperature;BMP_pressure;BME280_temperature;BME280_humidity;BME280_pressure;Samples;Min_cycle;Max_cycle;Signal;HPM_P1;HPM_P2
2023/08/16 00:02:15;;;;;;;5.72;2.33;;;20.20;96.80;;;;;;4966649;28;93464;-75
2023/08/16 00:04:44;;;;;;;7.70;2.80;;;20.20;96.90;;;;;;4965924;28;92977;-75
2023/08/16 00:07:09;;;;;;;5.05;2.22;;;20.10;97.20;;;;;;4965129;28;92248;-75
2023/08/16 00:09:35;;;;;;;4.88;2.72;;;20.20;97.10;;;;;;4964878;28;93822;-75
2023/08/16 00:12:01;;;;;;;6.55;2.63;;;20.10;97.00;;;;;;4948338;28;94823;-75
2023/08/16 00:14:26;;;;;;;7.40;2.92;;;20.10;97.20;;;;;;4964146;28;93709;-74
2023/08/16 00:16:52;;;;;;;3.72;2.45;;;20.10;97.00;;;;;;4964617;28;92932;-75
2023/08/16 00:19:18;;;;;;;6.13;2.70;;;20.10;97.00;;;;;;4964852;28;92470;-75
2023/08/16 00:21:43;;;;;;;5.85;2.90;;;20.10;97.30;;;;;;4964956;28;93908;-75
2023/08/16 00:24:09;;;;;;;4.45;2.53;;;20.00;97.10;;;;;;4947738;28;92432;-75
2023/08/16 00:26:35;;;;;;;9.27;2.97;;;20.00;97.00;;;;;;4965583;28;92608;-75
2023/08/16 00:29:02;;;;;;;5.85;2.47;;;20.00;97.30;;;;;;4966306;28;93747;-75
2023/08/16 00:31:28;;;;;;;5.90;2.50;;;20.00;97.70;;;;;;4964069;28;95217;-75
2023/08/16 00:33:53;;;;;;;6.10;2.88;;;20.00;97.70;;;;;;4964494;28;92205;-76
2023/08/16 00:36:19;;;;;;;9.10;3.05;;;20.00;97.50;;;;;;4965271;28;92534;-75
2023/08/16 00:38:44;;;;;;;6.47;2.72;;;20.00;97.50;;;;;;4964297;28;94622;-75
2023/08/16 00:41:11;;;;;;;6.10;2.92;;;20.10;97.60;;;;;;4964815;28;95408;-75
2023/08/16 00:43:38;;;;;;;4.45;2.60;;;20.10;97.60;;;;;;4962775;28;92799;-75
2023/08/16 00:46:07;;;;;;;7.28;2.80;;;20.10;97.30;;;;;;4964355;28;92763;-75
2023/08/16 00:48:35;;;;;;;6.15;3.08;;;20.00;97.20;;;;;;4963407;28;93543;-75
2023/08/16 00:51:01;;;;;;;4.57;2.70;;;20.00;97.40;;;;;;4966459;28;94209;-75
2023/08/16 00:53:30;;;;;;;4.70;2.50;;;20.00;97.50;;;;;;4965123;28;92901;-76
2023/08/16 00:55:57;;;;;;;7.35;3.10;;;20.00;97.40;;;;;;4971380;28;91666;-75
2023/08/16 00:58:22;;;;;;;4.20;2.03;;;19.90;97.10;;;;;;4963659;28;93545;-75
2023/08/16 01:00:48;;;;;;;5.43;2.80;;;19.90;97.00;;;;;;4963892;28;93366;-76
2023/08/16 01:03:14;;;;;;;4.55;2.38;;;19.90;97.10;;;;;;4965544;28;93390;-76
2023/08/16 01:05:40;;;;;;;7.53;3.20;;;19.90;97.10;;;;;;4965162;28;92602;-75
2023/08/16 01:08:06;;;;;;;5.25;2.92;;;19.90;97.00;;;;;;4963152;28;96600;-76
2023/08/16 01:10:58;;;;;;;6.53;2.70;;;19.90;96.80;;;;;;4965215;28;94213;-75
2023/08/16 01:13:36;;;;;;;8.20;3.20;;;19.80;96.90;;;;;;4962536;28;92320;-75
2023/08/16 01:16:08;;;;;;;4.97;2.75;;;19.80;96.80;;;;;;4963792;28;92714;-76
2023/08/16 01:18:37;;;;;;;6.30;2.70;;;19.70;96.70;;;;;;4965409;28;93712;-76
2023/08/16 01:21:07;;;;;;;6.53;2.78;;;19.70;96.90;;;;;;4964860;28;92928;-75
2023/08/16 01:23:53;;;;;;;11.85;3.45;;;19.70;97.00;;;;;;4964640;28;92746;-75
2023/08/16 01:26:35;;;;;;;6.55;3.55;;;19.70;96.90;;;;;;4962833;28;92597;-76
2023/08/16 01:29:03;;;;;;;8.80;2.90;;;19.70;97.00;;;;;;4963242;28;94496;-76
2023/08/16 01:31:29;;;;;;;2.97;2.55;;;19.70;97.20;;;;;;4964097;28;94206;-76
2023/08/16 01:33:57;;;;;;;8.40;3.55;;;19.70;97.30;;;;;;4963260;28;92643;-75
2023/08/16 01:36:22;;;;;;;10.10;3.40;;;19.70;97.30;;;;;;4965351;28;92472;-75
2023/08/16 01:38:48;;;;;;;6.05;2.90;;;19.70;97.50;;;;;;4963914;28;93356;-75
2023/08/16 01:41:26;;;;;;;7.07;3.10;;;19.70;97.40;;;;;;4963861;28;93306;-76
2023/08/16 01:43:54;;;;;;;6.57;3.10;;;19.70;97.80;;;;;;4963187;28;92907;-75
2023/08/16 01:46:22;;;;;;;9.40;3.13;;;19.70;98.00;;;;;;4962987;28;92022;-75
2023/08/16 01:48:48;;;;;;;5.03;2.50;;;19.70;98.00;;;;;;4965594;28;94742;-76
2023/08/16 01:51:14;;;;;;;5.60;2.40;;;19.70;98.10;;;;;;4964579;28;93392;-75
2023/08/16 01:53:40;;;;;;;7.97;3.03;;;19.70;98.00;;;;;;4964660;28;93740;-75
2023/08/16 01:56:05;;;;;;;4.78;2.90;;;19.60;97.70;;;;;;4964625;28;92622;-76
2023/08/16 01:58:31;;;;;;;7.38;3.05;;;19.70;97.70;;;;;;4964131;28;93116;-75
2023/08/16 02:00:56;;;;;;;5.75;2.78;;;19.70;97.30;;;;;;4963880;28;93458;-75
2023/08/16 02:03:22;;;;;;;4.88;2.72;;;19.70;97.40;;;;;;4964439;28;92794;-76
2023/08/16 02:05:48;;;;;;;7.35;2.97;;;19.70;97.40;;;;;;4964629;28;92777;-75
2023/08/16 02:08:14;;;;;;;6.47;3.13;;;19.70;97.20;;;;;;4963121;28;93775;-76
2023/08/16 02:10:39;;;;;;;6.25;2.78;;;19.70;96.90;;;;;;4963339;28;93911;-75
2023/08/16 02:13:05;;;;;;;5.53;3.47;;;19.70;97.10;;;;;;4945729;28;92995;-76
2023/08/16 02:15:31;;;;;;;6.55;2.45;;;19.60;97.20;;;;;;4963466;28;93042;-75
2023/08/16 02:17:57;;;;;;;5.13;2.50;;;19.70;97.10;;;;;;4964309;28;93906;-75
2023/08/16 02:20:22;;;;;;;4.88;2.45;;;19.60;97.20;;;;;;4953342;28;97222;-75
2023/08/16 02:22:48;;;;;;;6.03;2.85;;;19.60;97.00;;;;;;4963011;28;92438;-75
2023/08/16 02:25:14;;;;;;;7.80;3.35;;;19.60;97.10;;;;;;4963932;28;92723;-75
2023/08/16 02:27:40;;;;;;;7.97;3.30;;;19.50;97.40;;;;;;4963162;28;92944;-75
2023/08/16 02:30:06;;;;;;;5.78;2.90;;;19.50;97.40;;;;;;4963592;28;93436;-76
2023/08/16 02:32:33;;;;;;;5.18;2.75;;;19.50;97.60;;;;;;4954823;28;92179;-75
2023/08/16 02:34:59;;;;;;;4.55;2.72;;;19.40;97.60;;;;;;4963221;28;92097;-75
2023/08/16 02:37:26;;;;;;;5.20;3.17;;;19.40;97.90;;;;;;4963590;28;93605;-75
2023/08/16 02:39:51;;;;;;;7.20;3.10;;;19.40;98.00;;;;;;4963227;28;92874;-76
2023/08/16 02:42:17;;;;;;;6.68;3.65;;;19.40;98.30;;;;;;4963984;28;93686;-76
2023/08/16 02:44:43;;;;;;;8.23;3.80;;;19.40;98.30;;;;;;4963618;28;92842;-74
2023/08/16 02:47:09;;;;;;;8.63;3.75;;;19.40;98.40;;;;;;4965492;28;93602;-76
2023/08/16 02:49:34;;;;;;;5.55;3.47;;;19.40;98.40;;;;;;4959816;28;95426;-75
2023/08/16 02:52:00;;;;;;;5.93;3.17;;;19.40;98.50;;;;;;4962911;28;92242;-76
2023/08/16 02:54:26;;;;;;;8.20;3.30;;;19.30;98.50;;;;;;4962596;28;92670;-76
2023/08/16 02:56:51;;;;;;;4.38;2.85;;;19.40;98.80;;;;;;4954178;28;97135;-76
2023/08/16 02:59:17;;;;;;;7.20;3.10;;;19.30;98.80;;;;;;4962802;28;92508;-75
2023/08/16 03:01:43;;;;;;;7.97;3.60;;;19.40;98.60;;;;;;4961852;28;92947;-75
2023/08/16 03:04:10;;;;;;;6.70;3.00;;;19.40;98.50;;;;;;4962642;28;93073;-76
2023/08/16 03:06:35;;;;;;;7.78;3.20;;;19.40;98.50;;;;;;4961396;28;94778;-75
2023/08/16 03:09:01;;;;;;;5.80;3.25;;;19.40;98.60;;;;;;4963114;28;94371;-76
2023/08/16 03:11:27;;;;;;;5.60;2.85;;;19.40;98.80;;;;;;4961601;28;93014;-76
2023/08/16 03:13:52;;;;;;;6.45;3.75;;;19.50;98.80;;;;;;4962132;28;92583;-76
2023/08/16 03:16:18;;;;;;;6.75;3.30;;;19.50;98.50;;;;;;4962020;28;93855;-75
2023/08/16 03:18:43;;;;;;;4.47;2.90;;;19.50;98.50;;;;;;4962037;28;93174;-75
2023/08/16 03:21:09;;;;;;;4.38;2.70;;;19.50;98.60;;;;;;4962125;28;92552;-75
2023/08/16 03:23:35;;;;;;;7.38;3.00;;;19.50;98.50;;;;;;4964026;28;91935;-76
2023/08/16 03:26:01;;;;;;;6.55;3.30;;;19.50;98.50;;;;;;4966243;28;93207;-75
2023/08/16 03:28:26;;;;;;;7.90;3.00;;;19.50;98.90;;;;;;4965855;28;93469;-75
2023/08/16 03:30:52;;;;;;;9.30;3.60;;;19.50;98.80;;;;;;4964461;28;93511;-76
2023/08/16 03:33:18;;;;;;;7.43;3.53;;;19.50;98.80;;;;;;4947923;28;92742;-76
2023/08/16 03:35:43;;;;;;;8.45;3.10;;;19.50;98.60;;;;;;4966559;28;93738;-75
2023/08/16 03:38:09;;;;;;;9.90;4.32;;;19.50;98.80;;;;;;4964941;28;94387;-76
2023/08/16 03:40:34;;;;;;;6.45;3.80;;;19.50;98.60;;;;;;4966214;28;92232;-75
2023/08/16 03:43:00;;;;;;;7.80;4.20;;;19.50;98.50;;;;;;4955429;28;92936;-75
2023/08/16 03:45:26;;;;;;;6.40;3.47;;;19.50;98.50;;;;;;4966178;28;94029;-75
2023/08/16 03:47:55;;;;;;;7.75;3.53;;;19.40;98.60;;;;;;4948735;28;96312;-76
2023/08/16 03:50:21;;;;;;;9.80;3.83;;;19.50;98.50;;;;;;4965998;28;92219;-76
2023/08/16 03:52:47;;;;;;;11.85;3.40;;;19.40;98.40;;;;;;4967890;28;92510;-76
2023/08/16 03:55:12;;;;;;;6.28;3.15;;;19.50;98.40;;;;;;4965068;28;94695;-75
2023/08/16 03:57:38;;;;;;;7.47;3.42;;;19.50;98.50;;;;;;4965387;28;94334;-76
2023/08/16 04:00:10;;;;;;;6.28;3.42;;;19.50;98.40;;;;;;4948749;28;92712;-75
2023/08/16 04:02:36;;;;;;;7.28;3.58;;;19.50;98.30;;;;;;4966973;28;92644;-75
2023/08/16 04:05:09;;;;;;;7.93;4.00;;;19.50;98.20;;;;;;4966699;28;93003;-75
2023/08/16 04:07:35;;;;;;;7.68;4.10;;;19.40;98.10;;;;;;4966142;28;93603;-75
2023/08/16 04:10:00;;;;;;;9.95;3.70;;;19.40;98.30;;;;;;4964220;28;92939;-76
2023/08/16 04:12:26;;;;;;;10.88;5.38;;;19.30;98.40;;;;;;4964248;28;92091;-75
2023/08/16 04:14:51;;;;;;;7.75;4.45;;;19.40;98.40;;;;;;4965135;28;93995;-75
2023/08/16 04:17:17;;;;;;;8.18;4.55;;;19.30;98.50;;;;;;4965443;28;93618;-76
2023/08/16 04:19:43;;;;;;;9.52;5.22;;;19.30;98.50;;;;;;4964722;28;93489;-76
2023/08/16 04:22:08;;;;;;;9.30;4.28;;;19.30;98.60;;;;;;4948010;28;92585;-76
2023/08/16 04:24:34;;;;;;;7.82;4.15;;;19.30;98.40;;;;;;4964704;28;93241;-76
2023/08/16 04:27:00;;;;;;;8.13;4.10;;;19.30;98.90;;;;;;4965829;28;94207;-75
2023/08/16 04:29:25;;;;;;;7.95;4.40;;;19.30;98.80;;;;;;4947375;28;92812;-76
2023/08/16 04:31:51;;;;;;;8.52;4.68;;;19.30;98.80;;;;;;4964773;28;92618;-77
2023/08/16 04:34:16;;;;;;;7.55;4.05;;;19.30;98.90;;;;;;4946850;28;96492;-76
2023/08/16 04:36:42;;;;;;;7.25;3.35;;;19.30;98.80;;;;;;4945795;28;96118;-76
2023/08/16 04:39:08;;;;;;;9.68;3.40;;;19.40;98.70;;;;;;4967043;28;92581;-76
2023/08/16 04:41:34;;;;;;;6.63;3.80;;;19.30;98.70;;;;;;4964609;28;92978;-76
2023/08/16 04:43:59;;;;;;;6.85;4.20;;;19.30;98.80;;;;;;4965027;28;94081;-76
2023/08/16 04:46:25;;;;;;;6.35;3.90;;;19.30;98.80;;;;;;4946692;28;96358;-76
2023/08/16 04:48:51;;;;;;;9.43;3.95;;;19.30;98.60;;;;;;4964131;28;92539;-76
2023/08/16 04:51:17;;;;;;;6.40;3.70;;;19.30;98.80;;;;;;4966731;28;92158;-76
2023/08/16 04:53:45;;;;;;;6.85;4.20;;;19.30;98.80;;;;;;4964711;28;93609;-76
2023/08/16 04:56:11;;;;;;;7.47;3.63;;;19.40;98.90;;;;;;4947950;28;95480;-76
2023/08/16 04:58:36;;;;;;;9.52;4.13;;;19.40;98.90;;;;;;4964541;28;92744;-76
2023/08/16 05:01:02;;;;;;;8.10;4.35;;;19.40;98.90;;;;;;4965071;28;91889;-76
2023/08/16 05:03:29;;;;;;;7.45;4.35;;;19.50;98.80;;;;;;4964089;28;93649;-76
2023/08/16 05:06:00;;;;;;;9.57;4.28;;;19.50;98.90;;;;;;4965855;28;93373;-76
2023/08/16 05:08:25;;;;;;;8.35;4.95;;;19.40;99.00;;;;;;4963588;28;94117;-77
2023/08/16 05:10:51;;;;;;;8.43;4.82;;;19.40;99.00;;;;;;4965259;28;92468;-76
2023/08/16 05:13:17;;;;;;;8.15;4.50;;;19.40;99.10;;;;;;4946060;28;96470;-76
2023/08/16 05:15:44;;;;;;;9.80;5.15;;;19.40;99.30;;;;;;4947396;28;95264;-77
2023/08/16 05:18:11;;;;;;;9.90;4.32;;;19.40;99.30;;;;;;4964416;28;92326;-75
2023/08/16 05:20:37;;;;;;;7.85;4.47;;;19.40;99.30;;;;;;4965538;28;92652;-76
2023/08/16 05:23:03;;;;;;;7.85;4.80;;;19.50;99.20;;;;;;4964820;28;93683;-76
2023/08/16 05:25:29;;;;;;;9.75;5.13;;;19.50;99.30;;;;;;4965090;28;93364;-76
2023/08/16 05:27:58;;;;;;;13.18;5.85;;;19.50;99.30;;;;;;4946676;28;92572;-76
2023/08/16 05:30:27;;;;;;;6.55;4.50;;;19.40;99.20;;;;;;4963917;28;92639;-76
2023/08/16 05:32:55;;;;;;;7.30;5.03;;;19.40;99.10;;;;;;4965041;28;94199;-76
2023/08/16 05:35:21;;;;;;;11.30;5.00;;;19.50;99.10;;;;;;4953889;28;96410;-76
2023/08/16 05:37:47;;;;;;;8.60;4.25;;;19.40;99.20;;;;;;4964797;28;92623;-77
2023/08/16 05:40:13;;;;;;;7.75;4.60;;;19.50;99.20;;;;;;4964967;28;92694;-75
2023/08/16 05:42:39;;;;;;;7.75;4.93;;;19.50;99.40;;;;;;4964837;28;93349;-75
2023/08/16 05:45:06;;;;;;;6.80;4.28;;;19.60;99.20;;;;;;4966270;28;93561;-75
2023/08/16 05:47:32;;;;;;;9.00;5.05;;;19.60;99.20;;;;;;4963544;28;92506;-76
2023/08/16 05:49:58;;;;;;;7.28;5.28;;;19.60;99.20;;;;;;4965059;28;92038;-75
2023/08/16 05:52:24;;;;;;;8.35;5.43;;;19.70;99.20;;;;;;4963583;28;94239;-76
2023/08/16 05:54:50;;;;;;;7.95;5.10;;;19.70;99.00;;;;;;4947941;28;95526;-76
2023/08/16 05:57:15;;;;;;;8.80;5.60;;;19.70;98.90;;;;;;4963766;28;93365;-76
2023/08/16 05:59:41;;;;;;;9.15;5.93;;;19.70;99.00;;;;;;4946549;28;92999;-76
2023/08/16 06:02:06;;;;;;;7.78;5.40;;;19.70;99.10;;;;;;4964767;28;92886;-76
2023/08/16 06:04:33;;;;;;;8.07;5.07;;;19.70;98.90;;;;;;4963366;28;94138;-76
2023/08/16 06:06:59;;;;;;;8.57;5.15;;;19.80;99.10;;;;;;4962510;28;92572;-76
2023/08/16 06:09:24;;;;;;;7.60;5.75;;;19.80;99.00;;;;;;4963016;28;92379;-76
2023/08/16 06:11:50;;;;;;;10.18;6.13;;;19.90;98.60;;;;;;4946441;28;95874;-76
2023/08/16 06:14:16;;;;;;;8.05;5.28;;;20.00;98.20;;;;;;4962880;28;92710;-76
2023/08/16 06:16:41;;;;;;;8.43;4.93;;;20.00;98.40;;;;;;4964950;28;92549;-75
2023/08/16 06:19:08;;;;;;;7.43;5.32;;;20.00;98.40;;;;;;4963161;28;92182;-76
2023/08/16 06:21:34;;;;;;;9.75;5.40;;;20.10;98.30;;;;;;4963039;28;94526;-76
2023/08/16 06:24:00;;;;;;;8.90;5.28;;;20.20;98.30;;;;;;4962212;28;94033;-76
2023/08/16 06:26:25;;;;;;;11.00;5.75;;;20.20;98.00;;;;;;4963242;28;93054;-76
2023/08/16 06:28:51;;;;;;;8.80;5.10;;;20.30;98.00;;;;;;4963000;28;92804;-76
2023/08/16 06:31:17;;;;;;;10.57;5.60;;;20.30;97.80;;;;;;4963234;28;93990;-76
2023/08/16 06:33:43;;;;;;;11.75;5.53;;;20.40;97.90;;;;;;4962301;28;96691;-76
2023/08/16 06:36:10;;;;;;;9.30;6.68;;;20.40;97.60;;;;;;4963109;28;92425;-76
2023/08/16 06:38:36;;;;;;;8.52;4.55;;;20.50;97.30;;;;;;4964002;28;92128;-76
2023/08/16 06:41:02;;;;;;;8.48;5.20;;;20.50;97.10;;;;;;4963615;28;93644;-75
2023/08/16 06:43:28;;;;;;;8.25;5.38;;;20.50;97.00;;;;;;4962814;28;93245;-76
2023/08/16 06:45:54;;;;;;;10.13;5.32;;;20.50;96.80;;;;;;4962306;28;93588;-76
2023/08/16 06:48:20;;;;;;;8.57;4.82;;;20.50;97.00;;;;;;4942982;28;92930;-77
2023/08/16 06:50:45;;;;;;;10.35;5.53;;;20.40;97.00;;;;;;4964979;28;93827;-76
2023/08/16 06:53:11;;;;;;;8.25;4.85;;;20.40;97.00;;;;;;4953354;28;96984;-76
2023/08/16 06:55:37;;;;;;;9.07;5.50;;;20.40;97.00;;;;;;4965039;28;92694;-77
2023/08/16 06:58:05;;;;;;;6.22;4.78;;;20.40;96.70;;;;;;4963051;28;92619;-78
2023/08/16 07:00:31;;;;;;;9.63;5.15;;;20.40;96.80;;;;;;4966302;28;95145;-78
2023/08/16 07:02:58;;;;;;;7.10;4.75;;;20.40;96.80;;;;;;4970236;28;96299;-78
2023/08/16 07:05:26;;;;;;;8.18;4.38;;;20.40;96.70;;;;;;4971476;28;93192;-78
2023/08/16 07:07:52;;;;;;;5.38;4.10;;;20.40;96.40;;;;;;4952457;28;92459;-78
2023/08/16 07:10:18;;;;;;;7.68;3.92;;;20.40;96.60;;;;;;4966624;28;94214;-78
2023/08/16 07:12:45;;;;;;;8.25;4.60;;;20.40;96.60;;;;;;4950562;28;97420;-78
2023/08/16 07:15:11;;;;;;;10.60;4.45;;;20.50;96.50;;;;;;4957804;28;92471;-78
2023/08/16 07:17:37;;;;;;;6.75;5.15;;;20.50;96.50;;;;;;4968224;28;92730;-78
2023/08/16 07:20:07;;;;;;;13.93;5.00;;;20.50;96.30;;;;;;4966656;28;94280;-78
2023/08/16 07:22:33;;;;;;;8.02;5.55;;;20.50;96.30;;;;;;4950838;28;96391;-78
2023/08/16 07:24:59;;;;;;;8.82;4.70;;;20.50;95.90;;;;;;4948479;28;92343;-79
2023/08/16 07:27:24;;;;;;;6.00;4.43;;;20.50;96.40;;;;;;4965736;28;91951;-78
2023/08/16 07:29:50;;;;;;;7.40;4.68;;;20.40;96.10;;;;;;4967351;28;95974;-79
2023/08/16 07:32:16;;;;;;;12.48;5.15;;;20.40;96.40;;;;;;4948866;28;95924;-79
2023/08/16 07:34:43;;;;;;;7.88;5.00;;;20.50;96.80;;;;;;4965797;28;93640;-79
2023/08/16 07:37:13;;;;;;;12.70;6.28;;;20.50;96.90;;;;;;4947425;28;92896;-79
2023/08/16 07:39:39;;;;;;;8.23;5.32;;;20.50;96.80;;;;;;4946031;28;97172;-78
2023/08/16 07:42:06;;;;;;;6.75;4.95;;;20.50;96.90;;;;;;4967419;28;93810;-78
2023/08/16 07:44:33;;;;;;;7.13;4.75;;;20.50;97.20;;;;;;4948702;28;92727;-79
2023/08/16 07:46:58;;;;;;;8.73;4.85;;;20.50;96.90;;;;;;4966296;28;92444;-79
2023/08/16 07:49:24;;;;;;;7.90;5.55;;;20.60;97.20;;;;;;4964621;28;92817;-79
2023/08/16 07:51:49;;;;;;;7.25;5.40;;;20.60;97.00;;;;;;4948550;28;96217;-79
2023/08/16 07:54:15;;;;;;;7.30;4.97;;;20.60;97.00;;;;;;4948485;28;92947;-79
2023/08/16 07:56:41;;;;;;;13.25;5.60;;;20.60;96.80;;;;;;4948361;28;92722;-79
2023/08/16 07:59:06;;;;;;;7.82;4.72;;;20.70;97.00;;;;;;4964725;28;95782;-78
2023/08/16 08:01:32;;;;;;;9.68;5.63;;;20.70;96.80;;;;;;4964629;28;94136;-79
2023/08/16 08:03:57;;;;;;;8.68;5.13;;;20.70;97.00;;;;;;4948300;28;92465;-79
2023/08/16 08:06:23;;;;;;;12.43;5.13;;;20.80;96.80;;;;;;4956870;28;92526;-79
2023/08/16 08:08:49;;;;;;;6.07;3.83;;;20.80;96.50;;;;;;4946013;28;96681;-79
2023/08/16 08:11:15;;;;;;;8.00;4.75;;;20.80;96.70;;;;;;4967637;28;93292;-78
2023/08/16 08:13:40;;;;;;;8.65;4.60;;;20.80;96.80;;;;;;4964328;28;92766;-80
2023/08/16 08:16:07;;;;;;;9.63;5.22;;;20.80;96.80;;;;;;4966112;28;91522;-79
2023/08/16 08:18:33;;;;;;;9.38;5.70;;;20.90;96.70;;;;;;4968545;28;93812;-79
2023/08/16 08:20:59;;;;;;;13.60;6.20;;;20.90;96.90;;;;;;4966763;28;93424;-80
2023/08/16 08:23:25;;;;;;;11.93;6.60;;;20.90;97.20;;;;;;4947964;28;93797;-79
2023/08/16 08:25:51;;;;;;;11.60;7.22;;;20.90;97.20;;;;;;4967780;28;92853;-80
2023/08/16 08:28:18;;;;;;;7.85;6.65;;;21.00;97.30;;;;;;4963912;28;94149;-79
2023/08/16 08:30:44;;;;;;;9.45;6.32;;;21.00;97.10;;;;;;4966097;28;93025;-80
2023/08/16 08:33:10;;;;;;;8.30;6.40;;;21.00;97.20;;;;;;4966526;28;92935;-80
2023/08/16 08:35:37;;;;;;;9.27;7.15;;;21.10;96.90;;;;;;4965767;28;92547;-80
2023/08/16 08:38:03;;;;;;;13.02;7.78;;;21.10;97.20;;;;;;4966653;28;94413;-80
2023/08/16 08:40:32;;;;;;;9.65;6.97;;;21.20;97.00;;;;;;4946352;28;96514;-81
2023/08/16 08:42:59;;;;;;;12.48;7.10;;;21.20;97.30;;;;;;4964884;28;92787;-80
2023/08/16 08:45:27;;;;;;;10.70;7.78;;;21.30;96.90;;;;;;4948127;28;92436;-81
2023/08/16 08:47:57;;;;;;;9.73;7.55;;;21.30;97.30;;;;;;4965631;28;94424;-80
2023/08/16 08:50:23;;;;;;;10.85;7.25;;;21.40;97.20;;;;;;4964670;28;94435;-80
2023/08/16 08:52:51;;;;;;;12.07;7.43;;;21.40;97.00;;;;;;4955867;28;92920;-80
2023/08/16 08:55:18;;;;;;;11.38;7.80;;;21.50;96.80;;;;;;4964289;28;92622;-80
2023/08/16 08:57:50;;;;;;;12.82;7.82;;;21.60;97.00;;;;;;4963559;28;93614;-80
2023/08/16 09:00:19;;;;;;;12.48;7.43;;;21.70;96.90;;;;;;4946229;28;96658;-80
2023/08/16 09:02:50;;;;;;;10.95;7.95;;;21.80;97.00;;;;;;4963786;28;92754;-80
2023/08/16 09:05:19;;;;;;;11.13;7.32;;;21.80;96.80;;;;;;4963724;28;91836;-80
2023/08/16 09:07:45;;;;;;;10.38;8.10;;;21.90;96.20;;;;;;4962835;28;96578;-80
2023/08/16 09:10:12;;;;;;;10.82;7.80;;;21.90;96.70;;;;;;4962626;28;93407;-80
2023/08/16 09:12:38;;;;;;;8.95;7.47;;;22.00;96.90;;;;;;4945742;28;93117;-81
2023/08/16 09:15:07;;;;;;;10.32;6.90;;;22.20;96.90;;;;;;4962782;28;92904;-80
2023/08/16 09:17:33;;;;;;;13.95;7.13;;;22.30;96.50;;;;;;4953615;28;101209;-79
2023/08/16 09:20:00;;;;;;;10.10;7.03;;;22.50;96.60;;;;;;4961887;28;92685;-79
2023/08/16 09:22:27;;;;;;;9.52;6.80;;;22.60;95.80;;;;;;4963180;28;92790;-80
2023/08/16 09:24:56;;;;;;;7.80;6.90;;;22.70;95.60;;;;;;4958757;28;92988;-80
2023/08/16 09:27:22;;;;;;;11.32;6.68;;;22.80;95.30;;;;;;4961051;28;94390;-79
2023/08/16 09:29:49;;;;;;;6.53;5.43;;;22.90;95.00;;;;;;4947497;28;96396;-79
2023/08/16 09:32:14;;;;;;;10.15;7.20;;;23.00;95.00;;;;;;4946552;28;92567;-79
2023/08/16 09:34:40;;;;;;;14.13;6.93;;;23.20;94.70;;;;;;4944917;28;92598;-79
2023/08/16 09:37:07;;;;;;;7.13;6.40;;;23.30;93.90;;;;;;4962233;28;97784;-80
2023/08/16 09:39:33;;;;;;;10.63;6.90;;;23.30;93.70;;;;;;4958176;28;94800;-80
2023/08/16 09:41:59;;;;;;;16.55;6.60;;;23.30;93.40;;;;;;4959984;28;92201;-79
2023/08/16 09:44:29;;;;;;;9.90;6.45;;;23.40;93.50;;;;;;4962814;28;92662;-79
2023/08/16 09:46:57;;;;;;;10.13;7.22;;;23.40;93.30;;;;;;4951872;28;94793;-79
2023/08/16 09:49:24;;;;;;;8.02;6.28;;;23.50;92.90;;;;;;4962447;28;92798;-78
2023/08/16 09:51:51;;;;;;;12.90;7.15;;;23.60;94.10;;;;;;4960731;28;92783;-79
2023/08/16 09:54:17;;;;;;;7.60;5.82;;;23.70;93.90;;;;;;4964431;28;92418;-78
2023/08/16 09:56:47;;;;;;;9.77;5.28;;;23.90;94.10;;;;;;4964739;28;93551;-82
2023/08/16 09:59:14;;;;;;;7.85;5.03;;;24.10;94.30;;;;;;4947505;28;96111;-81
2023/08/16 10:01:40;;;;;;;9.30;4.70;;;24.40;93.80;;;;;;4945447;28;93136;-80
2023/08/16 10:04:11;;;;;;;9.35;5.43;;;24.60;91.80;;;;;;4951502;28;92651;-82
2023/08/16 10:06:37;;;;;;;7.78;5.13;;;24.80;91.90;;;;;;4963693;28;93464;-80
2023/08/16 10:09:04;;;;;;;8.05;5.40;;;25.10;91.60;;;;;;4964662;28;96753;-79
2023/08/16 10:11:33;;;;;;;11.57;5.38;;;25.30;90.20;;;;;;4957086;28;92898;-78
2023/08/16 10:14:02;;;;;;;7.88;4.13;;;25.50;90.40;;;;;;4955680;28;93124;-78
2023/08/16 10:16:30;;;;;;;6.53;3.92;;;25.60;89.40;;;;;;4956135;28;96915;-81
2023/08/16 10:18:58;;;;;;;11.73;4.00;;;25.80;88.90;;;;;;4955840;28;96306;-79
2023/08/16 10:21:27;;;;;;;8.15;3.90;;;26.00;87.40;;;;;;4964671;28;92764;-78
2023/08/16 10:23:56;;;;;;;5.15;2.85;;;26.30;86.50;;;;;;4956361;28;92791;-79
2023/08/16 10:26:23;;;;;;;4.90;2.42;;;26.30;84.40;;;;;;4947740;28;97428;-78
2023/08/16 10:28:55;;;;;;;4.07;2.53;;;26.40;85.60;;;;;;4946577;28;96298;-78
2023/08/16 10:31:28;;;;;;;4.00;2.33;;;26.50;85.00;;;;;;4948173;28;92688;-80
2023/08/16 10:33:57;;;;;;;8.27;2.90;;;26.60;84.40;;;;;;4962826;28;92721;-80
2023/08/16 10:36:23;;;;;;;5.45;3.58;;;26.70;85.30;;;;;;4964919;28;93476;-78
2023/08/16 10:38:56;;;;;;;5.63;2.88;;;26.80;83.50;;;;;;4948273;28;94881;-78
2023/08/16 10:41:22;;;;;;;6.22;2.42;;;26.90;85.20;;;;;;4964211;28;92605;-82
2023/08/16 10:43:52;;;;;;;6.28;2.88;;;27.10;85.20;;;;;;4963305;28;92107;-80
2023/08/16 10:46:36;;;;;;;3.20;1.80;;;27.10;81.70;;;;;;4962460;28;93180;-82
2023/08/16 10:49:06;;;;;;;3.58;2.22;;;27.20;82.80;;;;;;4945128;28;96730;-81
2023/08/16 10:51:43;;;;;;;5.05;2.30;;;27.40;83.00;;;;;;4945284;28;93664;-80
2023/08/16 10:54:08;;;;;;;3.90;2.50;;;27.60;83.20;;;;;;4962856;28;92767;-82
2023/08/16 10:56:44;;;;;;;6.07;2.72;;;27.80;79.60;;;;;;4964729;28;93860;-81
2023/08/16 10:59:12;;;;;;;5.63;2.08;;;28.00;79.30;;;;;;4963684;28;93119;-80
2023/08/16 11:01:48;;;;;;;3.92;2.15;;;28.20;80.70;;;;;;4946221;28;92740;-79
2023/08/16 11:04:14;;;;;;;7.22;2.33;;;28.30;78.10;;;;;;4965294;28;92188;-79
2023/08/16 11:06:40;;;;;;;5.90;2.10;;;28.50;78.80;;;;;;4947493;28;96115;-79
2023/08/16 11:09:07;;;;;;;3.55;1.92;;;28.70;78.10;;;;;;4964074;28;92579;-80
2023/08/16 11:11:33;;;;;;;6.13;2.10;;;28.70;74.00;;;;;;4962617;28;92744;-79
2023/08/16 11:14:02;;;;;;;5.20;1.77;;;28.70;75.70;;;;;;4957721;28;92549;-76
2023/08/16 11:16:28;;;;;;;6.50;1.70;;;28.70;76.30;;;;;;4961190;28;94150;-78
2023/08/16 11:18:59;;;;;;;3.85;1.90;;;28.80;76.50;;;;;;4950669;28;97421;-77
2023/08/16 11:21:25;;;;;;;2.92;1.50;;;28.90;73.80;;;;;;4960211;28;93229;-77
2023/08/16 11:23:54;;;;;;;3.95;1.60;;;29.00;74.40;;;;;;4943423;28;93094;-77
2023/08/16 11:26:19;;;;;;;2.85;1.40;;;29.10;73.20;;;;;;4960553;28;96993;-77
2023/08/16 11:28:46;;;;;;;4.10;2.05;;;29.10;74.30;;;;;;4958049;28;95042;-77
2023/08/16 11:31:12;;;;;;;2.95;1.77;;;29.30;73.30;;;;;;4957741;28;93888;-79
2023/08/16 11:33:42;;;;;;;4.25;1.30;;;29.50;71.90;;;;;;4942440;28;92236;-79
2023/08/16 11:36:10;;;;;;;3.17;1.70;;;29.70;73.40;;;;;;4960524;28;96692;-79
2023/08/16 11:38:38;;;;;;;3.97;1.52;;;29.90;72.60;;;;;;4962114;28;93324;-79
2023/08/16 11:41:05;;;;;;;3.25;1.55;;;30.10;71.80;;;;;;4961538;28;93638;-79
2023/08/16 11:43:32;;;;;;;4.47;1.40;;;30.30;69.80;;;;;;4963360;28;92538;-79
2023/08/16 11:45:59;;;;;;;4.90;1.67;;;30.40;68.30;;;;;;4962563;28;93247;-77
2023/08/16 11:48:25;;;;;;;2.42;1.33;;;30.50;67.70;;;;;;4965901;28;93527;-79
2023/08/16 11:50:53;;;;;;;3.97;1.92;;;30.60;69.50;;;;;;4968668;28;92739;-78
2023/08/16 11:53:20;;;;;;;4.82;1.52;;;30.70;67.90;;;;;;4965277;28;92695;-78
2023/08/16 11:55:59;;;;;;;2.75;1.38;;;30.90;68.30;;;;;;4965942;28;93787;-79
2023/08/16 11:58:25;;;;;;;3.08;1.52;;;31.10;69.40;;;;;;4964861;28;93379;-79
2023/08/16 12:00:51;;;;;;;3.15;1.50;;;31.20;66.50;;;;;;4965752;28;92654;-78
2023/08/16 12:03:17;;;;;;;4.07;1.45;;;31.30;68.10;;;;;;4948171;28;93112;-79
2023/08/16 12:05:50;;;;;;;6.85;2.00;;;31.60;67.80;;;;;;4965202;28;93651;-79
2023/08/16 12:08:22;;;;;;;5.45;2.05;;;31.70;67.20;;;;;;4967193;28;94063;-78
2023/08/16 12:10:54;;;;;;;3.73;1.90;;;31.80;64.70;;;;;;4972057;28;92721;-78
2023/08/16 12:13:20;;;;;;;3.92;2.38;;;32.00;66.60;;;;;;4964566;28;92194;-79
2023/08/16 12:15:46;;;;;;;5.45;1.88;;;32.20;66.20;;;;;;4969442;28;96820;-78
2023/08/16 12:18:14;;;;;;;3.42;1.88;;;32.40;66.50;;;;;;4962848;28;93843;-78
2023/08/16 12:20:41;;;;;;;4.22;2.30;;;32.50;65.20;;;;;;4966086;28;93455;-78
2023/08/16 12:23:07;;;;;;;6.00;2.85;;;32.70;63.60;;;;;;4965698;28;92197;-79
2023/08/16 12:25:34;;;;;;;6.65;2.10;;;32.90;62.50;;;;;;4963991;28;97062;-79
2023/08/16 12:28:00;;;;;;;5.47;1.88;;;32.90;65.30;;;;;;4964540;28;92780;-79
2023/08/16 12:30:28;;;;;;;3.08;2.10;;;33.20;65.40;;;;;;4965726;28;93950;-79
2023/08/16 12:32:54;;;;;;;3.30;1.75;;;33.50;62.70;;;;;;4967842;28;92670;-78
2023/08/16 12:35:20;;;;;;;5.35;2.70;;;33.50;62.10;;;;;;4964534;28;93759;-79
2023/08/16 12:37:46;;;;;;;7.25;2.60;;;33.50;59.70;;;;;;4964996;28;93192;-79
2023/08/16 12:40:12;;;;;;;3.53;2.30;;;33.40;61.30;;;;;;4965782;28;92556;-79
2023/08/16 12:42:38;;;;;;;4.40;2.20;;;33.60;61.40;;;;;;4964455;28;92187;-79
2023/08/16 12:45:04;;;;;;;5.97;2.22;;;33.60;61.50;;;;;;4964758;28;96346;-79